Hovedside
METAR-TAF:

METAR-TAF

Lufthavner :

Fua'amotu internasjonale lufthavn

Tongatapu, Tonga

breddegrad: 21-14S, lengdegrad: 175-09W, høyde over havet: 38 m

Gjeldene værobservasjon

Denne rapporten ble laget for 40 minutter siden, klokken 02:00 UTC
Vind 10 kt fra Nord-nordvest
Temperatur 27°C
Luftfuktighet 84%
Trykk 1010 hPa
Sikt 10 km eller mer
Spredte skyer i en høyde av 1700 ft, Tårnskyer (cumulus).

METAR: NFTF 200200Z 33010KT 9999 SCT017TCU 27/24 Q1010

Tid: 15:40 (02:40 UTC)

Varsel

Denne rapporten ble laget for 3 timer og 36 minutter siden, klokken 23:04 UTC
Varsel gyldig fra 20. klokken 00 UTC til 20. klokken 24 UTC
Vind 9 kt fra Nord-nordvest
Sikt 10 km eller mer
Spredte skyer i en høyde av 1600 ft
Brutte skyer i en høyde av 4000 ft
Sannsynlighet 40% :
Midlertidig
fra 20. klokken 09 UTC til 20. klokken 21 UTC
Sikt: 5000 m
Brutte skyer i en høyde av 1500 ft
regnbyger,

TAF: NFTF 192304Z 2000/2024 34009KT 9999 SCT016 BKN040 PROB40 TEMPO 2009/2021 5000 SHRA BKN015

Værobservasjoner og værvarsel for over 4000 flyplasser (METAR- og TAF-rapporter).

Tilgjengelige stasjoner er representert av de røde og gule prikkene på kartet.

Hold musepekeren over prikken for å se navnet på stasjonen.

Klikk så for å se værobservasjoner og -varsler.

For å forandre kartet kan du klikke på den grønne knappen med svart kryss for å zoome inn, på den grønne knappen med strek for å zoome ut, eller på de grønne pilene for å se tilstøtende kart.


METAR-TAF: